sensor_id;sensor_type;location;lat;lon;timestamp;pressure;altitude;pressure_sealevel;temperature;humidity
72210;BME280;60113;48.762;12.302;2023-03-04T00:01:39;97596.84;;;-4.24;70.97
72210;BME280;60113;48.762;12.302;2023-03-04T00:04:06;97589.16;;;-4.27;76.51
72210;BME280;60113;48.762;12.302;2023-03-04T00:06:32;97591.81;;;-4.33;76.43
72210;BME280;60113;48.762;12.302;2023-03-04T00:08:57;97591.84;;;-4.38;76.93
72210;BME280;60113;48.762;12.302;2023-03-04T00:11:25;97585.88;;;-4.42;78.52
72210;BME280;60113;48.762;12.302;2023-03-04T00:13:51;97585.97;;;-4.49;76.67
72210;BME280;60113;48.762;12.302;2023-03-04T00:16:17;97586.84;;;-4.50;77.41
72210;BME280;60113;48.762;12.302;2023-03-04T00:18:42;97592.00;;;-4.54;76.69
72210;BME280;60113;48.762;12.302;2023-03-04T00:21:09;97590.38;;;-4.61;73.84
72210;BME280;60113;48.762;12.302;2023-03-04T00:23:37;97587.81;;;-4.62;77.64
72210;BME280;60113;48.762;12.302;2023-03-04T00:26:05;97594.69;;;-4.66;79.15
72210;BME280;60113;48.762;12.302;2023-03-04T00:28:32;97581.84;;;-4.65;80.30
72210;BME280;60113;48.762;12.302;2023-03-04T00:30:57;97588.72;;;-4.67;77.67
72210;BME280;60113;48.762;12.302;2023-03-04T00:33:22;97597.31;;;-4.72;70.92
72210;BME280;60113;48.762;12.302;2023-03-04T00:35:48;97593.88;;;-4.70;78.38
72210;BME280;60113;48.762;12.302;2023-03-04T00:38:13;97591.31;;;-4.68;77.75
72210;BME280;60113;48.762;12.302;2023-03-04T00:40:38;97590.44;;;-4.67;76.74
72210;BME280;60113;48.762;12.302;2023-03-04T00:43:04;97592.97;;;-4.66;78.53
72210;BME280;60113;48.762;12.302;2023-03-04T00:45:29;97584.44;;;-4.69;71.11
72210;BME280;60113;48.762;12.302;2023-03-04T00:47:54;97591.31;;;-4.71;71.01
72210;BME280;60113;48.762;12.302;2023-03-04T00:50:20;97582.78;;;-4.72;74.64
72210;BME280;60113;48.762;12.302;2023-03-04T00:52:45;97588.78;;;-4.74;73.06
72210;BME280;60113;48.762;12.302;2023-03-04T00:55:10;97587.06;;;-4.75;76.76
72210;BME280;60113;48.762;12.302;2023-03-04T00:57:36;97587.13;;;-4.80;77.79
72210;BME280;60113;48.762;12.302;2023-03-04T01:00:04;97595.69;;;-4.81;79.03
72210;BME280;60113;48.762;12.302;2023-03-04T01:02:30;97593.16;;;-4.86;77.88
72210;BME280;60113;48.762;12.302;2023-03-04T01:04:55;97585.50;;;-4.89;80.01
72210;BME280;60113;48.762;12.302;2023-03-04T01:07:20;97582.94;;;-4.91;81.10
72210;BME280;60113;48.762;12.302;2023-03-04T01:09:46;97581.22;;;-4.88;84.77
72210;BME280;60113;48.762;12.302;2023-03-04T01:12:11;97580.38;;;-4.91;82.25
72210;BME280;60113;48.762;12.302;2023-03-04T01:14:36;97579.50;;;-4.90;81.99
72210;BME280;60113;48.762;12.302;2023-03-04T01:17:02;97567.56;;;-4.94;77.50
72210;BME280;60113;48.762;12.302;2023-03-04T01:19:27;97585.53;;;-4.94;74.28
72210;BME280;60113;48.762;12.302;2023-03-04T01:21:52;97571.84;;;-4.96;71.72
72210;BME280;60113;48.762;12.302;2023-03-04T01:24:18;97565.03;;;-4.95;72.22
72210;BME280;60113;48.762;12.302;2023-03-04T01:26:43;97569.28;;;-4.96;72.41
72210;BME280;60113;48.762;12.302;2023-03-04T01:29:09;97562.50;;;-5.00;71.53
72210;BME280;60113;48.762;12.302;2023-03-04T01:31:34;97564.22;;;-5.00;75.88
72210;BME280;60113;48.762;12.302;2023-03-04T01:34:00;97558.28;;;-5.06;76.01
72210;BME280;60113;48.762;12.302;2023-03-04T01:36:27;97566.00;;;-5.07;78.27
72210;BME280;60113;48.762;12.302;2023-03-04T01:38:53;97568.56;;;-5.10;74.41
72210;BME280;60113;48.762;12.302;2023-03-04T01:41:21;97560.03;;;-5.12;66.09
72210;BME280;60113;48.762;12.302;2023-03-04T01:43:47;97564.28;;;-5.08;77.11
72210;BME280;60113;48.762;12.302;2023-03-04T01:46:13;97552.31;;;-5.09;73.35
72210;BME280;60113;48.762;12.302;2023-03-04T01:48:41;97555.69;;;-5.03;76.19
72210;BME280;60113;48.762;12.302;2023-03-04T01:51:11;97557.38;;;-5.02;78.03
72210;BME280;60113;48.762;12.302;2023-03-04T01:53:37;97554.84;;;-5.05;75.81
72210;BME280;60113;48.762;12.302;2023-03-04T01:56:09;97554.88;;;-5.06;77.10
72210;BME280;60113;48.762;12.302;2023-03-04T01:58:35;97558.31;;;-5.09;78.12
72210;BME280;60113;48.762;12.302;2023-03-04T02:01:02;97542.09;;;-5.12;77.45
72210;BME280;60113;48.762;12.302;2023-03-04T02:03:27;97539.56;;;-5.16;77.03
72210;BME280;60113;48.762;12.302;2023-03-04T02:05:53;97546.41;;;-5.18;74.93
72210;BME280;60113;48.762;12.302;2023-03-04T02:08:20;97541.31;;;-5.21;74.93
72210;BME280;60113;48.762;12.302;2023-03-04T02:10:46;97538.75;;;-5.24;77.15
72210;BME280;60113;48.762;12.302;2023-03-04T02:13:11;97544.78;;;-5.30;78.34
72210;BME280;60113;48.762;12.302;2023-03-04T02:15:37;97538.00;;;-5.34;74.45
72210;BME280;60113;48.762;12.302;2023-03-04T02:18:06;97536.31;;;-5.36;72.05
72210;BME280;60113;48.762;12.302;2023-03-04T02:23:25;97540.56;;;-5.35;75.00
72210;BME280;60113;48.762;12.302;2023-03-04T02:28:27;97543.13;;;-5.34;79.76
72210;BME280;60113;48.762;12.302;2023-03-04T02:30:52;97537.16;;;-5.36;83.89
72210;BME280;60113;48.762;12.302;2023-03-04T02:33:18;97542.34;;;-5.44;83.48
72210;BME280;60113;48.762;12.302;2023-03-04T02:35:43;97535.56;;;-5.49;82.54
72210;BME280;60113;48.762;12.302;2023-03-04T02:38:09;97536.44;;;-5.52;82.86
72210;BME280;60113;48.762;12.302;2023-03-04T02:40:35;97532.16;;;-5.56;81.78
72210;BME280;60113;48.762;12.302;2023-03-04T02:43:01;97534.72;;;-5.56;80.65
72210;BME280;60113;48.762;12.302;2023-03-04T02:45:35;97533.91;;;-5.58;81.21
72210;BME280;60113;48.762;12.302;2023-03-04T02:48:04;97535.63;;;-5.63;82.38
72210;BME280;60113;48.762;12.302;2023-03-04T02:50:32;97542.50;;;-5.70;82.63
72210;BME280;60113;48.762;12.302;2023-03-04T02:52:58;97539.97;;;-5.75;82.81
72210;BME280;60113;48.762;12.302;2023-03-04T02:55:23;97539.16;;;-5.79;84.88
72210;BME280;60113;48.762;12.302;2023-03-04T02:57:48;97534.88;;;-5.81;83.65
72210;BME280;60113;48.762;12.302;2023-03-04T03:00:17;97540.88;;;-5.82;84.36
72210;BME280;60113;48.762;12.302;2023-03-04T03:02:42;97539.19;;;-5.86;84.56
72210;BME280;60113;48.762;12.302;2023-03-04T03:05:08;97542.63;;;-5.92;80.36
72210;BME280;60113;48.762;12.302;2023-03-04T03:07:33;97547.72;;;-5.92;80.10
72210;BME280;60113;48.762;12.302;2023-03-04T03:09:59;97542.66;;;-5.98;77.08
72210;BME280;60113;48.762;12.302;2023-03-04T03:12:24;97539.25;;;-6.00;72.79
72210;BME280;60113;48.762;12.302;2023-03-04T03:14:50;97546.91;;;-5.96;75.30
72210;BME280;60113;48.762;12.302;2023-03-04T03:17:15;97542.63;;;-5.95;75.90
72210;BME280;60113;48.762;12.302;2023-03-04T03:19:40;97549.50;;;-5.97;73.73
72210;BME280;60113;48.762;12.302;2023-03-04T03:22:06;97537.53;;;-5.97;68.05
72210;BME280;60113;48.762;12.302;2023-03-04T03:24:34;97544.34;;;-5.96;68.77
72210;BME280;60113;48.762;12.302;2023-03-04T03:26:59;97546.91;;;-5.94;74.85
72210;BME280;60113;48.762;12.302;2023-03-04T03:29:25;97544.38;;;-5.97;75.40
72210;BME280;60113;48.762;12.302;2023-03-04T03:31:53;97539.25;;;-5.99;70.31
72210;BME280;60113;48.762;12.302;2023-03-04T03:34:23;97542.69;;;-6.00;71.42
72210;BME280;60113;48.762;12.302;2023-03-04T03:36:48;97542.69;;;-6.03;74.76
72210;BME280;60113;48.762;12.302;2023-03-04T03:39:14;97540.19;;;-6.05;76.20
72210;BME280;60113;48.762;12.302;2023-03-04T03:41:40;97531.66;;;-6.11;67.46
72210;BME280;60113;48.762;12.302;2023-03-04T03:44:05;97531.66;;;-6.08;71.77
72210;BME280;60113;48.762;12.302;2023-03-04T03:46:30;97524.84;;;-6.08;69.79
72210;BME280;60113;48.762;12.302;2023-03-04T03:48:55;97536.72;;;-6.04;77.03
72210;BME280;60113;48.762;12.302;2023-03-04T03:51:21;97531.59;;;-6.04;75.65
72210;BME280;60113;48.762;12.302;2023-03-04T03:53:46;97540.19;;;-6.05;68.56
72210;BME280;60113;48.762;12.302;2023-03-04T03:56:11;97533.28;;;-5.99;78.99
72210;BME280;60113;48.762;12.302;2023-03-04T03:58:37;97535.00;;;-6.00;71.59
72210;BME280;60113;48.762;12.302;2023-03-04T04:01:02;97534.97;;;-5.97;75.97
72210;BME280;60113;48.762;12.302;2023-03-04T04:03:31;97539.22;;;-5.91;80.54
72210;BME280;60113;48.762;12.302;2023-03-04T04:05:56;97529.78;;;-5.87;76.35
72210;BME280;60113;48.762;12.302;2023-03-04T04:08:21;97536.63;;;-5.83;79.58
72210;BME280;60113;48.762;12.302;2023-03-04T04:10:47;97530.63;;;-5.81;81.25
72210;BME280;60113;48.762;12.302;2023-03-04T04:13:16;97530.59;;;-5.78;82.39
72210;BME280;60113;48.762;12.302;2023-03-04T04:15:41;97528.06;;;-5.79;79.08
72210;BME280;60113;48.762;12.302;2023-03-04T04:18:07;97525.44;;;-5.70;86.26
72210;BME280;60113;48.762;12.302;2023-03-04T04:20:33;97526.28;;;-5.65;81.15
72210;BME280;60113;48.762;12.302;2023-03-04T04:22:58;97520.22;;;-5.57;83.43
72210;BME280;60113;48.762;12.302;2023-03-04T04:25:24;97524.50;;;-5.61;78.61
72210;BME280;60113;48.762;12.302;2023-03-04T04:27:49;97527.97;;;-5.65;70.01
72210;BME280;60113;48.762;12.302;2023-03-04T04:30:14;97527.97;;;-5.65;72.37
72210;BME280;60113;48.762;12.302;2023-03-04T04:32:40;97522.88;;;-5.68;74.29
72210;BME280;60113;48.762;12.302;2023-03-04T04:35:08;97522.84;;;-5.65;79.43
72210;BME280;60113;48.762;12.302;2023-03-04T04:37:33;97525.38;;;-5.60;77.65
72210;BME280;60113;48.762;12.302;2023-03-04T04:39:59;97521.97;;;-5.61;77.52
72210;BME280;60113;48.762;12.302;2023-03-04T04:42:24;97532.19;;;-5.59;79.96
72210;BME280;60113;48.762;12.302;2023-03-04T04:44:52;97527.91;;;-5.56;83.15
72210;BME280;60113;48.762;12.302;2023-03-04T04:47:17;97520.22;;;-5.54;83.40
72210;BME280;60113;48.762;12.302;2023-03-04T04:49:43;97520.19;;;-5.49;85.32
72210;BME280;60113;48.762;12.302;2023-03-04T04:52:08;97515.06;;;-5.49;84.85
72210;BME280;60113;48.762;12.302;2023-03-04T04:54:33;97522.69;;;-5.40;84.46
72210;BME280;60113;48.762;12.302;2023-03-04T04:56:59;97518.41;;;-5.36;81.95
72210;BME280;60113;48.762;12.302;2023-03-04T04:59:24;97520.88;;;-5.32;83.63
72210;BME280;60113;48.762;12.302;2023-03-04T05:01:49;97529.44;;;-5.33;82.42
72210;BME280;60113;48.762;12.302;2023-03-04T05:04:25;97517.53;;;-5.37;77.10
72210;BME280;60113;48.762;12.302;2023-03-04T05:06:50;97526.94;;;-5.41;79.78
72210;BME280;60113;48.762;12.302;2023-03-04T05:09:15;97519.31;;;-5.48;72.18
72210;BME280;60113;48.762;12.302;2023-03-04T05:11:40;97526.16;;;-5.49;76.52
72210;BME280;60113;48.762;12.302;2023-03-04T05:14:06;97527.03;;;-5.55;77.71
72210;BME280;60113;48.762;12.302;2023-03-04T05:16:31;97526.25;;;-5.60;70.46
72210;BME280;60113;48.762;12.302;2023-03-04T05:18:57;97527.09;;;-5.64;72.37
72210;BME280;60113;48.762;12.302;2023-03-04T05:21:22;97522.03;;;-5.72;75.26
72210;BME280;60113;48.762;12.302;2023-03-04T05:23:48;97522.09;;;-5.81;71.48
72210;BME280;60113;48.762;12.302;2023-03-04T05:26:15;97531.50;;;-5.85;70.55
72210;BME280;60113;48.762;12.302;2023-03-04T05:28:40;97536.66;;;-5.90;73.03
72210;BME280;60113;48.762;12.302;2023-03-04T05:31:06;97536.69;;;-5.94;73.81
72210;BME280;60113;48.762;12.302;2023-03-04T05:33:31;97535.84;;;-6.01;74.00
72210;BME280;60113;48.762;12.302;2023-03-04T05:35:57;97529.03;;;-6.02;79.51
72210;BME280;60113;48.762;12.302;2023-03-04T05:38:22;97535.06;;;-6.06;77.43
72210;BME280;60113;48.762;12.302;2023-03-04T05:40:48;97534.22;;;-6.07;77.13
72210;BME280;60113;48.762;12.302;2023-03-04T05:43:14;97532.50;;;-6.06;82.35
72210;BME280;60113;48.762;12.302;2023-03-04T05:45:39;97536.78;;;-6.08;82.93
72210;BME280;60113;48.762;12.302;2023-03-04T05:48:06;97536.78;;;-6.11;77.62
72210;BME280;60113;48.762;12.302;2023-03-04T05:50:31;97542.78;;;-6.14;75.92
72210;BME280;60113;48.762;12.302;2023-03-04T05:53:00;97543.63;;;-6.15;75.08
72210;BME280;60113;48.762;12.302;2023-03-04T05:55:26;97541.03;;;-6.09;84.89
72210;BME280;60113;48.762;12.302;2023-03-04T05:57:53;97553.81;;;-6.09;81.84
72210;BME280;60113;48.762;12.302;2023-03-04T06:00:18;97548.63;;;-6.01;83.35
72210;BME280;60113;48.762;12.302;2023-03-04T06:02:44;97551.16;;;-5.93;82.22
72210;BME280;60113;48.762;12.302;2023-03-04T06:05:11;97553.66;;;-5.82;80.31
72210;BME280;60113;48.762;12.302;2023-03-04T06:07:37;97553.59;;;-5.71;82.33
72210;BME280;60113;48.762;12.302;2023-03-04T06:10:03;97551.00;;;-5.63;79.04
72210;BME280;60113;48.762;12.302;2023-03-04T06:12:29;97556.09;;;-5.59;80.23
72210;BME280;60113;48.762;12.302;2023-03-04T06:14:55;97564.66;;;-5.58;78.79
72210;BME280;60113;48.762;12.302;2023-03-04T06:17:20;97562.91;;;-5.56;81.35
72210;BME280;60113;48.762;12.302;2023-03-04T06:19:46;97572.28;;;-5.52;81.76
72210;BME280;60113;48.762;12.302;2023-03-04T06:22:12;97573.09;;;-5.45;83.86
72210;BME280;60113;48.762;12.302;2023-03-04T06:24:37;97572.22;;;-5.40;80.74
72210;BME280;60113;48.762;12.302;2023-03-04T06:27:03;97576.38;;;-5.28;83.57
72210;BME280;60113;48.762;12.302;2023-03-04T06:29:28;97572.03;;;-5.19;82.62
72210;BME280;60113;48.762;12.302;2023-03-04T06:31:55;97584.78;;;-5.10;80.07
72210;BME280;60113;48.762;12.302;2023-03-04T06:34:20;97584.66;;;-4.94;86.10
72210;BME280;60113;48.762;12.302;2023-03-04T06:36:45;97579.47;;;-4.86;81.87
72210;BME280;60113;48.762;12.302;2023-03-04T06:39:11;97586.22;;;-4.74;81.67
72210;BME280;60113;48.762;12.302;2023-03-04T06:41:36;97579.28;;;-4.65;77.59
72210;BME280;60113;48.762;12.302;2023-03-04T06:44:02;97588.50;;;-4.46;78.58
72210;BME280;60113;48.762;12.302;2023-03-04T06:46:27;97589.19;;;-4.29;79.15
72210;BME280;60113;48.762;12.302;2023-03-04T06:48:52;97593.25;;;-4.09;77.77
72210;BME280;60113;48.762;12.302;2023-03-04T06:51:19;97586.19;;;-3.90;78.47
72210;BME280;60113;48.762;12.302;2023-03-04T06:53:44;97590.28;;;-3.76;80.24
72210;BME280;60113;48.762;12.302;2023-03-04T06:56:10;97587.56;;;-3.64;82.01
72210;BME280;60113;48.762;12.302;2023-03-04T06:58:36;97595.06;;;-3.49;84.02
72210;BME280;60113;48.762;12.302;2023-03-04T07:03:49;97592.91;;;-3.18;85.41
72210;BME280;60113;48.762;12.302;2023-03-04T07:06:16;97590.09;;;-3.02;84.43
72210;BME280;60113;48.762;12.302;2023-03-04T07:08:45;97593.34;;;-2.91;84.92
72210;BME280;60113;48.762;12.302;2023-03-04T07:11:11;97591.47;;;-2.79;84.33
72210;BME280;60113;48.762;12.302;2023-03-04T07:13:36;97592.09;;;-2.66;84.48
72210;BME280;60113;48.762;12.302;2023-03-04T07:16:09;97598.75;;;-2.56;84.86
72210;BME280;60113;48.762;12.302;2023-03-04T07:18:44;97599.44;;;-2.44;84.22
72210;BME280;60113;48.762;12.302;2023-03-04T07:21:13;97603.47;;;-2.31;83.48
72210;BME280;60113;48.762;12.302;2023-03-04T07:23:39;97613.50;;;-2.15;81.93
72210;BME280;60113;48.762;12.302;2023-03-04T07:26:05;97610.53;;;-1.95;85.12
72210;BME280;60113;48.762;12.302;2023-03-04T07:28:31;97610.16;;;-1.76;83.19
72210;BME280;60113;48.762;12.302;2023-03-04T07:31:12;97610.56;;;-1.54;84.01
72210;BME280;60113;48.762;12.302;2023-03-04T07:33:42;97612.03;;;-1.42;84.27
72210;BME280;60113;48.762;12.302;2023-03-04T07:36:07;97623.75;;;-1.28;83.15
72210;BME280;60113;48.762;12.302;2023-03-04T07:38:33;97620.06;;;-1.16;82.70
72210;BME280;60113;48.762;12.302;2023-03-04T07:40:58;97617.19;;;-1.04;81.57
72210;BME280;60113;48.762;12.302;2023-03-04T07:43:24;97616.88;;;-0.90;81.47
72210;BME280;60113;48.762;12.302;2023-03-04T07:45:49;97621.81;;;-0.80;80.74
72210;BME280;60113;48.762;12.302;2023-03-04T07:48:15;97620.69;;;-0.68;80.05
72210;BME280;60113;48.762;12.302;2023-03-04T07:50:49;97626.56;;;-0.63;79.67
72210;BME280;60113;48.762;12.302;2023-03-04T07:53:15;97624.72;;;-0.58;79.83
72210;BME280;60113;48.762;12.302;2023-03-04T07:55:40;97633.25;;;-0.56;80.31
72210;BME280;60113;48.762;12.302;2023-03-04T07:58:05;97628.72;;;-0.46;79.21
72210;BME280;60113;48.762;12.302;2023-03-04T08:00:31;97632.16;;;-0.45;78.71
72210;BME280;60113;48.762;12.302;2023-03-04T08:02:56;97628.66;;;-0.43;79.23
72210;BME280;60113;48.762;12.302;2023-03-04T08:05:22;97632.75;;;-0.35;78.78
72210;BME280;60113;48.762;12.302;2023-03-04T08:07:47;97632.72;;;-0.34;78.63
72210;BME280;60113;48.762;12.302;2023-03-04T08:10:12;97638.59;;;-0.27;79.05
72210;BME280;60113;48.762;12.302;2023-03-04T08:12:38;97632.13;;;-0.10;78.53
72210;BME280;60113;48.762;12.302;2023-03-04T08:15:03;97632.97;;;-0.10;78.03
72210;BME280;60113;48.762;12.302;2023-03-04T08:17:29;97635.56;;;-0.10;78.75
72210;BME280;60113;48.762;12.302;2023-03-04T08:19:54;97635.44;;;-0.05;78.01
72210;BME280;60113;48.762;12.302;2023-03-04T08:22:21;97641.09;;;0.08;77.55
72210;BME280;60113;48.762;12.302;2023-03-04T08:24:46;97642.53;;;0.20;77.40
72210;BME280;60113;48.762;12.302;2023-03-04T08:27:12;97640.28;;;0.07;76.65
72210;BME280;60113;48.762;12.302;2023-03-04T08:29:37;97649.13;;;-0.02;77.29
72210;BME280;60113;48.762;12.302;2023-03-04T08:32:03;97650.31;;;-0.15;77.18
72210;BME280;60113;48.762;12.302;2023-03-04T08:34:28;97653.44;;;-0.02;78.54
72210;BME280;60113;48.762;12.302;2023-03-04T08:36:54;97657.75;;;-0.03;77.65
72210;BME280;60113;48.762;12.302;2023-03-04T08:39:19;97658.53;;;0.01;76.35
72210;BME280;60113;48.762;12.302;2023-03-04T08:41:45;97650.91;;;-0.04;76.30
72210;BME280;60113;48.762;12.302;2023-03-04T08:44:11;97649.25;;;-0.06;77.34
72210;BME280;60113;48.762;12.302;2023-03-04T08:46:37;97654.19;;;-0.32;77.46
72210;BME280;60113;48.762;12.302;2023-03-04T08:49:03;97662.56;;;-0.57;78.73
72210;BME280;60113;48.762;12.302;2023-03-04T08:51:35;97662.09;;;-1.13;80.63
72210;BME280;60113;48.762;12.302;2023-03-04T08:54:03;97663.56;;;-1.40;81.11
72210;BME280;60113;48.762;12.302;2023-03-04T08:56:28;97669.66;;;-1.44;82.58
72210;BME280;60113;48.762;12.302;2023-03-04T08:58:54;97675.44;;;-1.33;82.88
72210;BME280;60113;48.762;12.302;2023-03-04T09:01:19;97668.75;;;-1.42;82.81
72210;BME280;60113;48.762;12.302;2023-03-04T09:03:51;97667.44;;;-1.61;83.03
72210;BME280;60113;48.762;12.302;2023-03-04T09:06:17;97667.88;;;-1.85;83.51
72210;BME280;60113;48.762;12.302;2023-03-04T09:08:43;97673.22;;;-1.94;84.24
72210;BME280;60113;48.762;12.302;2023-03-04T09:11:08;97672.34;;;-1.95;84.29
72210;BME280;60113;48.762;12.302;2023-03-04T09:13:34;97665.69;;;-2.05;84.91
72210;BME280;60113;48.762;12.302;2023-03-04T09:16:07;97674.03;;;-1.94;85.22
72210;BME280;60113;48.762;12.302;2023-03-04T09:18:32;97669.53;;;-1.82;85.13
72210;BME280;60113;48.762;12.302;2023-03-04T09:20:58;97671.91;;;-1.71;84.08
72210;BME280;60113;48.762;12.302;2023-03-04T09:23:23;97675.22;;;-1.65;85.37
72210;BME280;60113;48.762;12.302;2023-03-04T09:25:49;97677.50;;;-1.49;84.86
72210;BME280;60113;48.762;12.302;2023-03-04T09:28:14;97682.19;;;-1.27;84.68
72210;BME280;60113;48.762;12.302;2023-03-04T09:30:41;97682.06;;;-1.21;82.17
72210;BME280;60113;48.762;12.302;2023-03-04T09:33:06;97678.50;;;-1.15;83.01
72210;BME280;60113;48.762;12.302;2023-03-04T09:35:39;97681.19;;;-1.20;82.24
72210;BME280;60113;48.762;12.302;2023-03-04T09:38:04;97684.47;;;-1.13;81.95
72210;BME280;60113;48.762;12.302;2023-03-04T09:40:36;97685.16;;;-1.05;81.67
72210;BME280;60113;48.762;12.302;2023-03-04T09:43:03;97679.72;;;-0.92;81.44
72210;BME280;60113;48.762;12.302;2023-03-04T09:46:02;97682.81;;;-0.76;80.71
72210;BME280;60113;48.762;12.302;2023-03-04T09:48:21;97672.59;;;-0.81;79.58
72210;BME280;60113;48.762;12.302;2023-03-04T09:53:59;97681.84;;;-0.72;78.61
72210;BME280;60113;48.762;12.302;2023-03-04T09:56:21;97680.84;;;-0.66;78.26
72210;BME280;60113;48.762;12.302;2023-03-04T09:58:56;97686.19;;;-0.74;78.85
72210;BME280;60113;48.762;12.302;2023-03-04T10:06:38;97680.44;;;-0.49;77.94
72210;BME280;60113;48.762;12.302;2023-03-04T10:09:11;97671.53;;;-0.37;78.18
72210;BME280;60113;48.762;12.302;2023-03-04T10:11:39;97669.69;;;-0.32;78.10
72210;BME280;60113;48.762;12.302;2023-03-04T10:14:19;97667.00;;;-0.27;78.24
72210;BME280;60113;48.762;12.302;2023-03-04T10:16:52;97663.41;;;-0.21;78.68
72210;BME280;60113;48.762;12.302;2023-03-04T10:19:20;97664.97;;;-0.14;78.16
72210;BME280;60113;48.762;12.302;2023-03-04T10:21:49;97670.00;;;-0.09;75.96
72210;BME280;60113;48.762;12.302;2023-03-04T10:24:18;97660.53;;;-0.10;76.53
72210;BME280;60113;48.762;12.302;2023-03-04T10:26:48;97661.28;;;-0.05;76.61
72210;BME280;60113;48.762;12.302;2023-03-04T10:29:19;97659.66;;;-0.09;76.46
72210;BME280;60113;48.762;12.302;2023-03-04T10:31:48;97660.63;;;-0.14;75.24
72210;BME280;60113;48.762;12.302;2023-03-04T10:34:14;97660.47;;;-0.07;75.84
72210;BME280;60113;48.762;12.302;2023-03-04T10:39:10;97673.13;;;0.35;74.63
72210;BME280;60113;48.762;12.302;2023-03-04T10:41:36;97666.75;;;0.47;73.04
72210;BME280;60113;48.762;12.302;2023-03-04T10:46:42;97674.59;;;0.44;73.35
72210;BME280;60113;48.762;12.302;2023-03-04T10:49:18;97662.81;;;0.64;73.76
72210;BME280;60113;48.762;12.302;2023-03-04T10:51:48;97666.19;;;0.68;72.68
72210;BME280;60113;48.762;12.302;2023-03-04T10:56:42;97656.53;;;0.11;73.03
72210;BME280;60113;48.762;12.302;2023-03-04T11:01:57;97677.31;;;-0.27;74.03
72210;BME280;60113;48.762;12.302;2023-03-04T11:04:23;97681.59;;;-0.61;74.52
72210;BME280;60113;48.762;12.302;2023-03-04T11:06:52;97681.63;;;-0.63;74.03
72210;BME280;60113;48.762;12.302;2023-03-04T11:09:22;97682.22;;;-0.89;75.49
72210;BME280;60113;48.762;12.302;2023-03-04T11:11:48;97676.31;;;-0.94;76.55
72210;BME280;60113;48.762;12.302;2023-03-04T11:14:18;97676.38;;;-0.97;76.76
72210;BME280;60113;48.762;12.302;2023-03-04T11:16:52;97672.19;;;-1.02;76.27
72210;BME280;60113;48.762;12.302;2023-03-04T11:19:18;97667.03;;;-1.02;76.88
72210;BME280;60113;48.762;12.302;2023-03-04T11:21:45;97670.72;;;-1.12;77.14
72210;BME280;60113;48.762;12.302;2023-03-04T11:24:14;97664.78;;;-1.17;76.68
72210;BME280;60113;48.762;12.302;2023-03-04T11:26:50;97662.16;;;-1.14;75.38
72210;BME280;60113;48.762;12.302;2023-03-04T11:29:19;97648.53;;;-1.21;75.60
72210;BME280;60113;48.762;12.302;2023-03-04T11:31:51;97653.84;;;-1.29;77.08
72210;BME280;60113;48.762;12.302;2023-03-04T11:34:26;97660.91;;;-1.37;77.67
72210;BME280;60113;48.762;12.302;2023-03-04T11:39:20;97654.88;;;-1.36;77.21
72210;BME280;60113;48.762;12.302;2023-03-04T11:42:34;97657.38;;;-1.33;77.64
72210;BME280;60113;48.762;12.302;2023-03-04T11:44:40;97664.31;;;-1.35;78.17
72210;BME280;60113;48.762;12.302;2023-03-04T11:47:21;97656.69;;;-1.40;76.64
72210;BME280;60113;48.762;12.302;2023-03-04T11:49:54;97648.00;;;-1.35;77.63
72210;BME280;60113;48.762;12.302;2023-03-04T11:55:30;97646.38;;;-1.40;78.33
72210;BME280;60113;48.762;12.302;2023-03-04T12:03:36;97641.91;;;-1.33;76.65
72210;BME280;60113;48.762;12.302;2023-03-04T12:06:24;97640.88;;;-1.26;78.32
72210;BME280;60113;48.762;12.302;2023-03-04T12:14:07;97622.19;;;-1.34;77.65
72210;BME280;60113;48.762;12.302;2023-03-04T12:19:21;97619.34;;;-1.23;78.45
72210;BME280;60113;48.762;12.302;2023-03-04T12:29:53;97602.06;;;-1.19;76.62
72210;BME280;60113;48.762;12.302;2023-03-04T12:32:24;97600.38;;;-1.20;77.82
72210;BME280;60113;48.762;12.302;2023-03-04T12:35:00;97589.97;;;-1.16;77.14
72210;BME280;60113;48.762;12.302;2023-03-04T12:45:26;97584.81;;;-1.16;76.04
72210;BME280;60113;48.762;12.302;2023-03-04T12:48:07;97582.09;;;-1.09;77.49
72210;BME280;60113;48.762;12.302;2023-03-04T12:53:14;97572.03;;;-0.84;76.36
72210;BME280;60113;48.762;12.302;2023-03-04T12:55:44;97580.47;;;-0.79;75.48
72210;BME280;60113;48.762;12.302;2023-03-04T12:58:20;97571.22;;;-0.86;76.41
72210;BME280;60113;48.762;12.302;2023-03-04T13:06:04;97569.75;;;-0.96;74.83
72210;BME280;60113;48.762;12.302;2023-03-04T13:08:35;97581.91;;;-1.02;74.81
72210;BME280;60113;48.762;12.302;2023-03-04T13:14:06;97576.63;;;-0.97;74.57
72210;BME280;60113;48.762;12.302;2023-03-04T13:16:35;97564.41;;;-0.89;75.79
72210;BME280;60113;48.762;12.302;2023-03-04T13:19:03;97558.16;;;-0.80;73.82
72210;BME280;60113;48.762;12.302;2023-03-04T13:21:48;97562.31;;;-0.74;74.91
72210;BME280;60113;48.762;12.302;2023-03-04T13:24:43;97562.50;;;-0.82;74.52
72210;BME280;60113;48.762;12.302;2023-03-04T13:29:56;97567.22;;;-0.65;74.54
72210;BME280;60113;48.762;12.302;2023-03-04T13:32:34;97557.59;;;-0.58;74.74
72210;BME280;60113;48.762;12.302;2023-03-04T13:35:01;97539.63;;;-0.61;73.15
72210;BME280;60113;48.762;12.302;2023-03-04T13:42:42;97557.03;;;-0.69;73.67
72210;BME280;60113;48.762;12.302;2023-03-04T13:47:52;97548.72;;;-0.81;75.29
72210;BME280;60113;48.762;12.302;2023-03-04T13:50:22;97544.66;;;-0.91;74.04
72210;BME280;60113;48.762;12.302;2023-03-04T13:52:48;97555.84;;;-0.91;75.92
72210;BME280;60113;48.762;12.302;2023-03-04T13:57:57;97563.84;;;-1.02;75.94
72210;BME280;60113;48.762;12.302;2023-03-04T14:00:25;97562.19;;;-1.04;75.43
72210;BME280;60113;48.762;12.302;2023-03-04T14:02:51;97556.25;;;-1.08;76.69
72210;BME280;60113;48.762;12.302;2023-03-04T14:05:17;97566.59;;;-1.09;76.39
72210;BME280;60113;48.762;12.302;2023-03-04T14:07:42;97546.78;;;-1.07;76.04
72210;BME280;60113;48.762;12.302;2023-03-04T14:12:38;97557.06;;;-1.06;76.77
72210;BME280;60113;48.762;12.302;2023-03-04T14:17:31;97558.81;;;-1.08;76.42
72210;BME280;60113;48.762;12.302;2023-03-04T14:19:58;97551.94;;;-1.07;76.85
72210;BME280;60113;48.762;12.302;2023-03-04T14:24:59;97546.75;;;-1.06;76.16